Time;durP1;ratioP1;P1;durP2;ratioP2;P2;SDS_P1;SDS_P2;PMS_P1;PMS_P2;Temp;Humidity;BMP_temperature;BMP_pressure;BME280_temperature;BME280_humidity;BME280_pressure;Samples;Min_cycle;Max_cycle;Signal;HPM_P1;HPM_P2
2023/04/13 00:00:53;;;;;;;6.67;5.00;;;6.90;99.90;;;;;;5024869;28;20491;-61
2023/04/13 00:03:20;;;;;;;5.50;5.00;;;6.90;99.90;;;;;;5011665;28;21756;-61
2023/04/13 00:05:52;;;;;;;6.53;5.10;;;6.90;99.90;;;;;;5013085;28;20483;-61
2023/04/13 00:08:21;;;;;;;5.10;4.60;;;6.90;99.90;;;;;;5012701;28;21097;-60
2023/04/13 00:10:50;;;;;;;6.67;5.23;;;6.80;99.90;;;;;;5014590;28;20541;-61
2023/04/13 00:13:18;;;;;;;6.60;5.10;;;6.80;99.90;;;;;;5005105;28;20917;-61
2023/04/13 00:15:46;;;;;;;6.53;5.90;;;6.70;99.90;;;;;;5018154;28;20847;-62
2023/04/13 00:18:14;;;;;;;5.67;5.17;;;6.70;99.90;;;;;;5014971;28;20490;-61
2023/04/13 00:20:42;;;;;;;5.10;4.60;;;6.70;99.90;;;;;;5029990;28;20494;-61
2023/04/13 00:23:12;;;;;;;5.50;5.00;;;6.70;99.90;;;;;;5019902;28;20476;-61
2023/04/13 00:25:40;;;;;;;6.23;5.20;;;6.60;99.90;;;;;;5024749;28;20903;-61
2023/04/13 00:28:08;;;;;;;5.93;5.43;;;6.60;99.90;;;;;;5006871;28;20491;-61
2023/04/13 00:30:36;;;;;;;5.47;4.90;;;6.60;99.90;;;;;;5012887;28;20498;-61
2023/04/13 00:33:04;;;;;;;6.60;5.20;;;6.60;99.90;;;;;;5010096;28;21176;-61
2023/04/13 00:35:33;;;;;;;6.30;5.70;;;6.60;99.90;;;;;;5020368;28;20493;-61
2023/04/13 00:38:02;;;;;;;7.70;5.60;;;6.60;99.90;;;;;;5015695;28;20487;-61
2023/04/13 00:40:32;;;;;;;5.53;4.93;;;6.50;99.90;;;;;;5012036;28;20889;-61
2023/04/13 00:43:01;;;;;;;6.73;4.80;;;6.50;99.90;;;;;;5017919;28;21199;-61
2023/04/13 00:45:30;;;;;;;5.97;5.37;;;6.50;99.90;;;;;;5014390;28;20477;-62
2023/04/13 00:47:58;;;;;;;6.67;5.60;;;6.40;99.90;;;;;;5015416;28;20486;-62
2023/04/13 00:50:27;;;;;;;7.50;5.83;;;6.40;99.90;;;;;;5016992;28;20497;-61
2023/04/13 00:52:56;;;;;;;6.30;5.70;;;6.40;99.90;;;;;;5023394;28;20565;-62
2023/04/13 00:55:26;;;;;;;7.43;5.80;;;6.40;99.90;;;;;;5011730;28;20525;-62
2023/04/13 00:57:56;;;;;;;7.80;6.20;;;6.40;99.90;;;;;;5010725;28;20936;-61
2023/04/13 01:00:25;;;;;;;8.10;6.63;;;6.40;99.90;;;;;;5017557;28;20867;-62
2023/04/13 01:02:53;;;;;;;7.13;6.13;;;6.30;99.90;;;;;;5015290;28;20467;-62
2023/04/13 01:05:24;;;;;;;7.63;6.83;;;6.30;99.90;;;;;;5021158;28;20526;-61
2023/04/13 01:08:07;;;;;;;8.80;6.47;;;6.30;99.90;;;;;;5023048;28;21274;-61
2023/04/13 01:10:43;;;;;;;6.30;5.53;;;6.30;99.90;;;;;;5016450;28;20982;-61
2023/04/13 01:13:19;;;;;;;9.20;6.00;;;6.30;99.90;;;;;;5024267;28;20475;-61
2023/04/13 01:16:00;;;;;;;9.80;7.00;;;6.30;99.90;;;;;;5016575;28;20471;-61
2023/04/13 01:18:30;;;;;;;8.90;6.60;;;6.30;99.90;;;;;;5022180;28;20510;-61
2023/04/13 01:20:59;;;;;;;8.13;6.07;;;6.20;99.90;;;;;;5023321;28;20483;-61
2023/04/13 01:23:39;;;;;;;7.57;6.77;;;6.20;99.90;;;;;;5024280;28;20467;-61
2023/04/13 01:26:07;;;;;;;8.70;7.10;;;6.20;99.90;;;;;;5026080;28;20854;-62
2023/04/13 01:28:39;;;;;;;7.40;6.67;;;6.20;99.90;;;;;;5017270;28;20498;-62
2023/04/13 01:31:10;;;;;;;7.97;7.17;;;6.10;99.90;;;;;;5022415;28;20503;-61
2023/04/13 01:33:40;;;;;;;9.63;7.10;;;6.20;99.90;;;;;;5017966;28;20923;-62
2023/04/13 01:36:10;;;;;;;7.83;6.87;;;6.10;99.90;;;;;;5016355;28;21011;-62
2023/04/13 01:38:38;;;;;;;9.93;8.27;;;6.10;99.90;;;;;;5019759;28;20475;-61
2023/04/13 01:41:07;;;;;;;10.97;8.60;;;6.10;99.90;;;;;;5020132;28;20479;-61
2023/04/13 01:43:37;;;;;;;10.53;8.40;;;6.00;99.90;;;;;;5018099;28;20480;-61
2023/04/13 01:46:10;;;;;;;10.10;9.00;;;6.00;99.90;;;;;;5017366;28;20548;-61
2023/04/13 01:48:45;;;;;;;14.50;10.27;;;6.00;99.90;;;;;;5019779;28;20491;-61
2023/04/13 01:51:18;;;;;;;12.83;10.20;;;6.00;99.90;;;;;;5004184;28;21102;-63
2023/04/13 01:53:52;;;;;;;12.97;10.73;;;5.90;99.90;;;;;;5022640;28;20474;-62
2023/04/13 01:56:23;;;;;;;16.90;11.17;;;5.90;99.90;;;;;;5012883;28;20506;-61
2023/04/13 01:58:56;;;;;;;13.40;11.47;;;5.90;99.90;;;;;;5024819;28;20486;-61
2023/04/13 02:01:25;;;;;;;13.77;11.87;;;5.90;99.90;;;;;;5018032;28;20637;-61
2023/04/13 02:03:53;;;;;;;14.70;11.83;;;5.90;99.90;;;;;;5025577;28;20467;-61
2023/04/13 02:06:22;;;;;;;15.70;12.10;;;5.80;99.90;;;;;;5022027;28;20611;-61
2023/04/13 02:08:50;;;;;;;16.70;12.23;;;5.80;99.90;;;;;;5016557;28;20488;-61
2023/04/13 02:11:20;;;;;;;15.53;13.00;;;5.80;99.90;;;;;;5012858;28;20538;-62
2023/04/13 02:13:48;;;;;;;13.80;12.10;;;5.80;99.90;;;;;;5019857;28;20494;-62
2023/04/13 02:16:18;;;;;;;17.60;13.10;;;5.80;99.90;;;;;;5016826;28;20819;-62
2023/04/13 02:18:47;;;;;;;14.77;12.70;;;5.80;99.90;;;;;;5017261;28;20545;-61
2023/04/13 02:21:15;;;;;;;14.50;12.77;;;5.80;99.90;;;;;;5021585;28;20876;-61
2023/04/13 02:23:44;;;;;;;18.33;12.63;;;5.80;99.90;;;;;;5023261;28;20544;-61
2023/04/13 02:26:13;;;;;;;15.20;11.40;;;5.70;99.90;;;;;;5014401;28;20549;-61
2023/04/13 02:28:41;;;;;;;14.27;11.80;;;5.80;99.90;;;;;;5020398;28;20487;-61
2023/04/13 02:31:09;;;;;;;16.57;11.00;;;5.70;99.90;;;;;;5014340;28;21045;-62
2023/04/13 02:33:38;;;;;;;14.17;10.80;;;5.70;99.90;;;;;;5021308;28;20467;-62
2023/04/13 02:36:07;;;;;;;13.10;10.17;;;5.70;99.90;;;;;;5017545;28;20473;-64
2023/04/13 02:38:36;;;;;;;13.33;9.60;;;5.60;99.90;;;;;;5015330;28;21024;-61
2023/04/13 02:41:05;;;;;;;11.23;8.67;;;5.60;99.90;;;;;;5018281;28;20497;-61
2023/04/13 02:43:33;;;;;;;9.97;8.37;;;5.60;99.90;;;;;;5015293;28;21054;-61
2023/04/13 02:46:01;;;;;;;12.50;8.90;;;5.60;99.90;;;;;;5017797;28;20853;-61
2023/04/13 02:48:29;;;;;;;9.60;8.07;;;5.60;99.90;;;;;;5021347;28;20537;-61
2023/04/13 02:50:58;;;;;;;9.83;8.47;;;5.50;99.90;;;;;;5019127;28;20870;-61
2023/04/13 02:53:27;;;;;;;10.80;8.13;;;5.50;99.90;;;;;;5015915;28;20478;-61
2023/04/13 02:55:55;;;;;;;10.50;8.17;;;5.50;99.90;;;;;;5015762;28;20486;-61
2023/04/13 02:58:24;;;;;;;11.07;7.87;;;5.50;99.90;;;;;;5020355;28;21052;-61
2023/04/13 03:00:52;;;;;;;9.80;8.40;;;5.50;99.90;;;;;;5015573;28;21130;-62
2023/04/13 03:03:20;;;;;;;9.83;8.10;;;5.50;99.90;;;;;;5021936;28;20562;-61
2023/04/13 03:05:49;;;;;;;11.20;8.50;;;5.40;99.90;;;;;;5020492;28;21547;-63
2023/04/13 03:08:19;;;;;;;12.40;8.50;;;5.40;99.90;;;;;;5019220;28;20506;-62
2023/04/13 03:10:47;;;;;;;11.83;8.30;;;5.40;99.90;;;;;;5015551;28;20517;-61
2023/04/13 03:13:14;;;;;;;11.37;8.53;;;5.40;99.90;;;;;;5009223;28;20471;-61
2023/04/13 03:15:42;;;;;;;8.37;7.47;;;5.40;99.90;;;;;;5017757;28;20475;-61
2023/04/13 03:18:10;;;;;;;10.33;8.10;;;5.40;99.90;;;;;;5019201;28;20494;-62
2023/04/13 03:20:39;;;;;;;11.47;8.80;;;5.30;99.90;;;;;;5014236;28;20495;-61
2023/04/13 03:23:06;;;;;;;10.87;8.50;;;5.30;99.90;;;;;;5021859;28;20847;-62
2023/04/13 03:25:36;;;;;;;10.00;7.83;;;5.30;99.90;;;;;;5023114;28;20470;-61
2023/04/13 03:28:04;;;;;;;10.00;7.63;;;5.30;99.90;;;;;;5022034;28;21015;-61
2023/04/13 03:30:32;;;;;;;8.80;7.90;;;5.30;99.90;;;;;;5018040;28;20503;-61
2023/04/13 03:33:01;;;;;;;9.47;8.00;;;5.30;99.90;;;;;;5019666;28;20474;-62
2023/04/13 03:35:29;;;;;;;9.60;8.43;;;5.20;99.90;;;;;;5023380;28;20968;-61
2023/04/13 03:37:57;;;;;;;10.93;8.10;;;5.30;99.90;;;;;;5019471;28;20486;-61
2023/04/13 03:40:26;;;;;;;9.77;7.73;;;5.30;99.90;;;;;;5024941;28;20503;-62
2023/04/13 03:42:55;;;;;;;12.30;8.40;;;5.20;99.90;;;;;;5020331;28;20476;-61
2023/04/13 03:45:23;;;;;;;11.83;8.10;;;5.20;99.90;;;;;;5014535;28;20471;-61
2023/04/13 03:47:51;;;;;;;9.87;7.97;;;5.20;99.90;;;;;;5019480;28;20471;-61
2023/04/13 03:50:19;;;;;;;10.70;7.50;;;5.20;99.90;;;;;;5024826;28;20883;-61
2023/04/13 03:52:47;;;;;;;11.23;7.70;;;5.20;99.90;;;;;;5022742;28;20474;-62
2023/04/13 03:55:16;;;;;;;10.10;8.20;;;5.20;99.90;;;;;;5027436;28;20991;-61
2023/04/13 03:57:45;;;;;;;10.03;8.33;;;5.20;99.90;;;;;;5016501;28;21097;-61
2023/04/13 04:00:15;;;;;;;11.20;8.43;;;5.10;99.90;;;;;;5015925;28;20494;-61
2023/04/13 04:02:43;;;;;;;11.87;8.33;;;5.10;99.90;;;;;;5020436;28;20546;-61
2023/04/13 04:05:11;;;;;;;12.20;9.10;;;5.10;99.90;;;;;;5025727;28;20503;-61
2023/04/13 04:07:39;;;;;;;11.20;8.73;;;5.10;99.90;;;;;;5041106;28;20979;-62
2023/04/13 04:10:08;;;;;;;9.77;7.90;;;5.10;99.90;;;;;;5049440;28;20497;-60
2023/04/13 04:12:36;;;;;;;13.30;9.07;;;5.00;99.90;;;;;;5041139;28;20494;-61
2023/04/13 04:15:05;;;;;;;10.67;8.40;;;5.10;99.90;;;;;;5019464;28;20471;-61
2023/04/13 04:17:34;;;;;;;12.23;8.40;;;5.10;99.90;;;;;;5023225;28;20490;-61
2023/04/13 04:20:07;;;;;;;12.23;8.93;;;5.00;99.90;;;;;;5026240;28;20587;-61
2023/04/13 04:22:35;;;;;;;12.90;8.90;;;5.00;99.90;;;;;;5027081;28;20462;-61
2023/04/13 04:25:03;;;;;;;14.00;9.40;;;5.00;99.90;;;;;;5023501;28;20475;-61
2023/04/13 04:27:36;;;;;;;10.23;8.67;;;5.00;99.90;;;;;;5013033;28;20467;-62
2023/04/13 04:30:09;;;;;;;11.40;9.40;;;5.00;99.90;;;;;;5016063;28;20578;-61
2023/04/13 04:32:39;;;;;;;11.40;8.90;;;5.00;99.90;;;;;;5013089;28;20494;-61
2023/04/13 04:35:08;;;;;;;14.33;8.60;;;5.00;99.90;;;;;;5018692;28;20463;-61
2023/04/13 04:37:37;;;;;;;13.30;9.30;;;5.00;99.90;;;;;;5021563;28;20478;-61
2023/04/13 04:40:08;;;;;;;14.10;9.73;;;5.00;99.90;;;;;;5008471;28;20503;-61
2023/04/13 04:42:37;;;;;;;14.60;10.07;;;5.00;99.90;;;;;;5009306;28;22633;-61
2023/04/13 04:45:05;;;;;;;14.00;9.53;;;5.00;99.90;;;;;;5005373;28;20467;-61
2023/04/13 04:47:40;;;;;;;13.90;10.10;;;5.00;99.90;;;;;;5018339;28;20541;-61
2023/04/13 04:50:11;;;;;;;14.40;9.57;;;5.00;99.90;;;;;;5018080;28;20489;-62
2023/04/13 04:52:40;;;;;;;15.77;10.30;;;5.00;99.90;;;;;;5001975;28;20514;-61
2023/04/13 04:55:09;;;;;;;13.37;9.37;;;5.00;99.90;;;;;;5004181;28;22047;-61
2023/04/13 04:57:37;;;;;;;13.13;9.30;;;5.00;99.90;;;;;;5009368;28;20471;-62
2023/04/13 05:00:09;;;;;;;13.03;9.50;;;5.00;99.90;;;;;;5011857;28;20487;-61
2023/04/13 05:02:37;;;;;;;12.60;9.63;;;5.00;99.90;;;;;;5020391;28;20908;-67
2023/04/13 05:05:06;;;;;;;12.10;8.97;;;5.10;99.90;;;;;;5019301;28;20467;-61
2023/04/13 05:07:36;;;;;;;14.67;9.90;;;5.10;99.90;;;;;;5017321;28;20901;-62
2023/04/13 05:10:06;;;;;;;15.53;9.40;;;5.10;99.90;;;;;;5006552;28;20582;-62
2023/04/13 05:12:34;;;;;;;14.47;9.53;;;5.10;99.90;;;;;;5006218;28;20491;-63
2023/04/13 05:15:05;;;;;;;11.10;8.87;;;5.20;99.90;;;;;;5009477;28;20483;-62
2023/04/13 05:17:33;;;;;;;12.80;9.87;;;5.20;99.90;;;;;;4993192;28;20783;-61
2023/04/13 05:20:05;;;;;;;15.73;9.10;;;5.20;99.90;;;;;;5008912;28;20582;-62
2023/04/13 05:22:35;;;;;;;11.53;9.03;;;5.20;99.90;;;;;;5010680;28;21424;-61
2023/04/13 05:25:03;;;;;;;14.30;8.67;;;5.30;99.90;;;;;;5027815;28;20467;-62
2023/04/13 05:27:31;;;;;;;12.80;9.93;;;5.30;99.90;;;;;;5020826;28;20471;-62
2023/04/13 05:30:02;;;;;;;12.27;9.40;;;5.40;99.90;;;;;;5011181;28;20486;-62
2023/04/13 05:32:32;;;;;;;14.83;9.37;;;5.40;99.90;;;;;;5019232;28;20498;-62
2023/04/13 05:35:00;;;;;;;16.60;9.90;;;5.40;99.90;;;;;;5010620;28;20985;-63
2023/04/13 05:37:28;;;;;;;10.90;8.90;;;5.50;99.90;;;;;;5021225;28;20481;-63
2023/04/13 05:39:58;;;;;;;15.17;9.30;;;5.50;99.90;;;;;;5016617;28;20599;-62
2023/04/13 05:42:26;;;;;;;11.07;8.43;;;5.60;99.90;;;;;;5026884;28;20471;-62
2023/04/13 05:44:54;;;;;;;14.30;10.53;;;5.60;99.90;;;;;;5012761;28;22133;-62
2023/04/13 05:47:23;;;;;;;13.30;9.27;;;5.70;99.90;;;;;;5021828;28;20984;-62
2023/04/13 05:49:51;;;;;;;13.93;9.70;;;5.80;99.90;;;;;;5014769;28;20548;-63
2023/04/13 05:52:20;;;;;;;11.93;9.83;;;5.80;99.90;;;;;;5013291;28;21100;-62
2023/04/13 05:54:49;;;;;;;12.50;10.20;;;5.90;99.90;;;;;;5027086;28;20556;-63
2023/04/13 05:57:19;;;;;;;13.00;10.87;;;5.90;99.90;;;;;;5028506;28;20471;-63
2023/04/13 05:59:47;;;;;;;13.27;9.17;;;6.00;99.90;;;;;;5024072;28;20491;-63
2023/04/13 06:02:15;;;;;;;12.03;7.97;;;6.10;99.90;;;;;;5023272;28;20474;-62
2023/04/13 06:04:43;;;;;;;10.13;8.17;;;6.20;99.90;;;;;;5028721;28;20472;-62
2023/04/13 06:07:13;;;;;;;11.13;7.80;;;6.30;99.90;;;;;;5022943;28;20475;-62
2023/04/13 06:09:41;;;;;;;10.20;7.30;;;6.40;99.90;;;;;;5026336;28;20483;-63
2023/04/13 06:12:09;;;;;;;10.00;8.10;;;6.50;99.90;;;;;;5022541;28;20487;-63
2023/04/13 06:14:40;;;;;;;11.67;8.33;;;6.60;99.90;;;;;;5026482;28;20574;-62
2023/04/13 06:17:08;;;;;;;9.10;7.07;;;6.70;99.90;;;;;;5026457;28;20986;-62
2023/04/13 06:19:36;;;;;;;8.30;7.17;;;6.70;99.90;;;;;;5027372;28;20585;-62
2023/04/13 06:22:04;;;;;;;8.90;6.63;;;6.70;99.90;;;;;;5025425;28;20777;-62
2023/04/13 06:24:32;;;;;;;9.20;7.37;;;6.70;99.90;;;;;;5026266;28;20944;-62
2023/04/13 06:27:00;;;;;;;7.90;6.43;;;6.70;99.90;;;;;;5027252;28;20464;-62
2023/04/13 06:29:28;;;;;;;9.17;6.67;;;6.70;99.90;;;;;;5027891;28;20497;-62
2023/04/13 06:31:57;;;;;;;7.80;6.23;;;6.70;99.90;;;;;;5024672;28;20475;-62
2023/04/13 06:34:26;;;;;;;8.47;7.30;;;6.70;99.90;;;;;;5029497;28;20845;-63
2023/04/13 06:36:53;;;;;;;7.60;5.40;;;6.80;99.90;;;;;;5029323;28;20484;-63
2023/04/13 06:39:21;;;;;;;8.20;6.40;;;6.80;99.90;;;;;;5021152;28;20498;-63
2023/04/13 06:41:49;;;;;;;8.70;6.20;;;6.80;99.90;;;;;;5023638;28;20489;-63
2023/04/13 06:44:18;;;;;;;7.90;6.80;;;6.80;99.90;;;;;;5020925;28;20487;-63
2023/04/13 06:46:46;;;;;;;7.70;6.20;;;6.80;99.90;;;;;;5022712;28;20467;-61
2023/04/13 06:49:15;;;;;;;7.07;6.33;;;6.90;99.90;;;;;;5022879;28;20490;-62
2023/04/13 06:51:43;;;;;;;6.53;5.47;;;6.90;99.90;;;;;;5020870;28;20471;-62
2023/04/13 06:54:11;;;;;;;7.47;5.00;;;6.90;99.90;;;;;;5021599;28;20857;-62
2023/04/13 06:56:39;;;;;;;5.10;4.50;;;7.00;99.90;;;;;;5024410;28;20967;-67
2023/04/13 06:59:07;;;;;;;4.47;4.07;;;7.00;99.90;;;;;;5019610;28;20486;-62
2023/04/13 07:01:36;;;;;;;4.83;4.30;;;7.00;99.90;;;;;;5022116;28;20523;-62
2023/04/13 07:04:06;;;;;;;4.97;4.47;;;7.10;99.90;;;;;;5018354;28;20471;-62
2023/04/13 07:06:36;;;;;;;4.97;4.57;;;7.10;99.90;;;;;;5021120;28;20582;-62
2023/04/13 07:09:04;;;;;;;4.53;3.73;;;7.20;99.90;;;;;;5022095;28;20490;-63
2023/04/13 07:11:32;;;;;;;5.80;4.60;;;7.30;99.90;;;;;;5021337;28;20486;-62
2023/04/13 07:14:00;;;;;;;5.20;3.60;;;7.30;99.90;;;;;;5016732;28;20726;-62
2023/04/13 07:16:27;;;;;;;4.47;3.90;;;7.40;99.90;;;;;;5011909;28;20467;-61
2023/04/13 07:18:56;;;;;;;3.93;3.50;;;7.40;99.90;;;;;;5023049;28;20483;-62
2023/04/13 07:21:24;;;;;;;4.43;3.80;;;7.50;99.90;;;;;;5024563;28;20494;-63
2023/04/13 07:23:53;;;;;;;5.10;3.50;;;7.50;99.90;;;;;;5024510;28;20463;-62
2023/04/13 07:26:21;;;;;;;4.53;3.27;;;7.60;99.90;;;;;;5023712;28;20475;-62
2023/04/13 07:28:49;;;;;;;5.43;3.23;;;7.60;99.90;;;;;;5018649;28;20840;-62
2023/04/13 07:31:17;;;;;;;3.30;2.83;;;7.70;99.90;;;;;;5025151;28;20487;-62
2023/04/13 07:33:45;;;;;;;2.97;2.77;;;7.70;99.90;;;;;;5021578;28;20483;-62
2023/04/13 07:36:13;;;;;;;3.20;2.90;;;7.80;99.90;;;;;;5017163;28;20483;-62
2023/04/13 07:38:41;;;;;;;5.10;3.30;;;7.80;99.90;;;;;;5019124;28;20885;-62
2023/04/13 07:41:10;;;;;;;2.93;2.67;;;7.90;99.90;;;;;;5023625;28;20495;-62
2023/04/13 07:43:38;;;;;;;3.40;2.60;;;8.00;99.90;;;;;;5016135;28;22533;-62
2023/04/13 07:46:10;;;;;;;2.30;2.10;;;8.00;99.90;;;;;;5022226;28;20484;-62
2023/04/13 07:48:38;;;;;;;4.40;3.10;;;8.00;99.90;;;;;;5025695;28;21018;-62
2023/04/13 07:51:07;;;;;;;3.97;2.50;;;8.10;99.90;;;;;;5023390;28;21047;-62
2023/04/13 07:53:35;;;;;;;2.43;2.20;;;8.10;99.90;;;;;;5023884;28;20490;-62
2023/04/13 07:56:03;;;;;;;3.70;2.23;;;8.20;99.90;;;;;;5026036;28;20478;-62
2023/04/13 07:58:32;;;;;;;3.73;2.10;;;8.30;99.90;;;;;;5026495;28;20487;-62
2023/04/13 08:01:00;;;;;;;2.60;2.40;;;8.30;99.90;;;;;;5024337;28;20494;-61
2023/04/13 08:03:31;;;;;;;3.53;2.50;;;8.40;99.90;;;;;;5024641;28;20863;-61
2023/04/13 08:05:59;;;;;;;2.43;2.10;;;8.50;99.90;;;;;;5027045;28;20979;-61
2023/04/13 08:08:28;;;;;;;8.90;2.53;;;8.60;99.90;;;;;;5025705;28;20537;-61
2023/04/13 08:10:56;;;;;;;6.43;4.23;;;8.60;99.90;;;;;;5027041;28;20857;-61
2023/04/13 08:13:25;;;;;;;2.43;2.20;;;8.60;99.90;;;;;;5026655;28;20491;-61
2023/04/13 08:15:55;;;;;;;2.30;2.13;;;8.60;99.90;;;;;;5026741;28;20493;-61
2023/04/13 08:18:25;;;;;;;3.17;2.07;;;8.70;99.90;;;;;;5027901;28;21015;-61
2023/04/13 08:20:53;;;;;;;2.70;2.50;;;8.70;99.90;;;;;;5026209;28;20498;-61
2023/04/13 08:23:21;;;;;;;2.63;2.43;;;8.80;99.90;;;;;;5025782;28;20476;-61
2023/04/13 08:25:49;;;;;;;2.87;2.50;;;8.70;99.90;;;;;;5020254;28;20474;-62
2023/04/13 08:28:17;;;;;;;5.40;2.27;;;8.80;99.90;;;;;;5024788;28;20479;-63
2023/04/13 08:30:45;;;;;;;2.67;2.33;;;8.80;99.90;;;;;;5023895;28;20897;-62
2023/04/13 08:33:15;;;;;;;2.30;2.10;;;8.90;99.90;;;;;;5026863;28;20483;-62
2023/04/13 08:35:42;;;;;;;2.50;2.30;;;8.90;99.90;;;;;;5025706;28;20971;-62
2023/04/13 08:38:11;;;;;;;2.23;2.03;;;8.90;99.90;;;;;;5027206;28;20486;-62
2023/04/13 08:40:40;;;;;;;2.27;2.10;;;9.00;99.90;;;;;;5023522;28;20499;-62
2023/04/13 08:43:08;;;;;;;2.57;2.27;;;9.00;99.90;;;;;;5029052;28;20777;-63
2023/04/13 08:45:36;;;;;;;2.23;2.07;;;9.10;99.90;;;;;;5027460;28;20470;-62
2023/04/13 08:48:04;;;;;;;2.43;2.23;;;9.10;99.90;;;;;;5045120;28;20531;-62
2023/04/13 08:50:34;;;;;;;2.20;2.00;;;9.20;99.90;;;;;;5033123;28;20698;-62
2023/04/13 08:53:02;;;;;;;3.70;2.33;;;9.20;99.90;;;;;;5025464;28;20463;-61
2023/04/13 08:55:30;;;;;;;2.30;2.10;;;9.30;99.90;;;;;;5024759;28;20478;-63
2023/04/13 08:58:00;;;;;;;2.27;2.07;;;9.40;99.90;;;;;;5027301;28;20482;-62
2023/04/13 09:00:28;;;;;;;3.60;2.23;;;9.60;99.90;;;;;;5026193;28;21032;-63
2023/04/13 09:03:02;;;;;;;2.50;2.30;;;9.60;99.90;;;;;;5024341;28;21085;-61
2023/04/13 09:05:40;;;;;;;2.67;2.13;;;9.80;99.90;;;;;;5031374;28;20466;-61
2023/04/13 09:08:12;;;;;;;2.50;2.13;;;9.80;99.90;;;;;;5023971;28;20479;-62
2023/04/13 09:10:41;;;;;;;2.40;2.20;;;9.90;99.90;;;;;;5043637;28;20481;-62
2023/04/13 09:13:09;;;;;;;2.37;2.17;;;9.90;99.90;;;;;;5049212;28;21055;-61
2023/04/13 09:15:37;;;;;;;2.13;2.00;;;10.00;99.90;;;;;;5048469;28;20471;-61
2023/04/13 09:18:10;;;;;;;2.63;1.90;;;10.00;99.90;;;;;;5034850;28;20566;-61
2023/04/13 09:20:40;;;;;;;2.57;2.07;;;10.10;99.90;;;;;;5029819;28;21168;-62
2023/04/13 09:23:15;;;;;;;2.90;1.80;;;10.20;99.90;;;;;;5027104;28;20467;-62
2023/04/13 09:25:44;;;;;;;1.80;1.70;;;10.30;99.90;;;;;;5024229;28;20475;-62
2023/04/13 09:28:18;;;;;;;1.80;1.70;;;10.40;99.90;;;;;;5026886;28;20491;-62
2023/04/13 09:30:47;;;;;;;2.40;2.10;;;10.50;99.90;;;;;;5025259;28;20540;-62
2023/04/13 09:33:16;;;;;;;2.20;1.90;;;10.60;99.90;;;;;;5019236;28;20514;-61
2023/04/13 09:35:45;;;;;;;2.00;1.90;;;10.60;99.90;;;;;;5022965;28;20494;-61
2023/04/13 09:38:15;;;;;;;2.10;1.90;;;10.60;99.90;;;;;;5024597;28;20487;-63
2023/04/13 09:40:52;;;;;;;2.00;1.80;;;10.60;99.90;;;;;;5025162;28;20494;-63
2023/04/13 09:43:20;;;;;;;2.10;2.00;;;10.70;99.90;;;;;;5030843;28;20481;-63
2023/04/13 09:45:49;;;;;;;2.27;2.00;;;10.70;99.90;;;;;;5020066;28;20549;-63
2023/04/13 09:48:19;;;;;;;3.70;2.50;;;10.80;99.90;;;;;;5021347;28;20492;-63
2023/04/13 09:50:58;;;;;;;3.40;2.20;;;10.90;99.90;;;;;;5021445;28;20502;-63
2023/04/13 09:53:27;;;;;;;3.20;2.00;;;11.00;99.90;;;;;;5027504;28;20467;-63
2023/04/13 09:55:59;;;;;;;3.37;2.20;;;11.10;99.90;;;;;;5025796;28;20487;-62
2023/04/13 09:58:28;;;;;;;35.77;30.00;;;11.10;99.90;;;;;;5024305;28;20515;-64
2023/04/13 10:00:58;;;;;;;3.80;2.90;;;11.10;99.90;;;;;;5022941;28;20479;-63
2023/04/13 10:03:26;;;;;;;1.93;1.83;;;11.20;99.90;;;;;;5028702;28;20471;-63
2023/04/13 10:05:57;;;;;;;4.10;2.40;;;11.20;99.90;;;;;;5029628;28;20467;-63
2023/04/13 10:08:27;;;;;;;4.00;2.43;;;11.40;99.90;;;;;;5029793;28;20483;-62
2023/04/13 10:11:01;;;;;;;2.00;1.80;;;11.40;99.90;;;;;;5027898;28;21006;-62
2023/04/13 10:13:34;;;;;;;2.10;1.90;;;11.50;99.90;;;;;;5025941;28;21674;-62
2023/04/13 10:16:31;;;;;;;2.40;2.10;;;11.40;99.90;;;;;;5028210;28;20487;-62
2023/04/13 10:19:05;;;;;;;2.30;1.90;;;11.40;99.90;;;;;;5029650;28;20475;-63
2023/04/13 10:21:38;;;;;;;2.20;2.00;;;11.40;99.90;;;;;;5028532;28;20530;-63
2023/04/13 10:24:08;;;;;;;2.30;1.67;;;11.40;99.90;;;;;;5025427;28;20474;-63
2023/04/13 10:26:40;;;;;;;2.47;1.90;;;11.40;99.90;;;;;;5027916;28;20472;-62
2023/04/13 10:29:10;;;;;;;2.17;1.80;;;11.40;99.90;;;;;;5027104;28;20586;-63
2023/04/13 10:31:40;;;;;;;2.33;2.13;;;11.40;99.90;;;;;;5023109;28;21007;-62
2023/04/13 10:34:09;;;;;;;2.60;2.17;;;11.40;99.90;;;;;;5027575;28;20467;-63
2023/04/13 10:36:40;;;;;;;2.90;2.70;;;11.30;99.90;;;;;;5029533;28;20470;-62
2023/04/13 10:39:09;;;;;;;2.70;2.50;;;11.20;99.90;;;;;;5024205;28;20486;-62
2023/04/13 10:41:37;;;;;;;4.40;2.90;;;11.10;99.90;;;;;;5019763;28;20539;-62
2023/04/13 10:44:07;;;;;;;2.70;2.50;;;11.00;99.90;;;;;;5027263;28;20582;-62
2023/04/13 10:46:35;;;;;;;2.83;2.63;;;10.90;99.90;;;;;;5028783;28;21765;-63
2023/04/13 10:49:05;;;;;;;3.07;2.83;;;10.90;99.90;;;;;;5027050;28;20493;-63
2023/04/13 10:51:42;;;;;;;3.13;2.80;;;11.10;99.90;;;;;;5029355;28;20507;-63
2023/04/13 10:54:13;;;;;;;3.00;2.80;;;11.30;99.90;;;;;;5019979;28;20479;-63
2023/04/13 10:56:41;;;;;;;2.70;2.50;;;11.40;99.90;;;;;;5024869;28;20492;-62
2023/04/13 10:59:09;;;;;;;3.07;2.87;;;11.40;99.90;;;;;;5026238;28;20856;-63
2023/04/13 11:01:39;;;;;;;3.23;2.90;;;11.40;99.90;;;;;;5025621;28;20501;-63
2023/04/13 11:04:09;;;;;;;3.97;2.63;;;11.40;99.90;;;;;;5026301;28;20463;-63
2023/04/13 11:06:45;;;;;;;2.97;2.50;;;11.40;99.90;;;;;;5023090;28;20482;-63
2023/04/13 11:09:14;;;;;;;3.07;2.80;;;11.40;99.90;;;;;;5024026;28;20973;-63
2023/04/13 11:11:50;;;;;;;2.23;2.13;;;11.40;99.90;;;;;;5022035;28;20468;-63
2023/04/13 11:14:21;;;;;;;2.47;2.27;;;11.60;99.90;;;;;;5022865;28;20471;-63
2023/04/13 11:16:49;;;;;;;2.37;2.17;;;11.60;99.90;;;;;;5023441;28;20498;-63
2023/04/13 11:19:17;;;;;;;1.70;1.60;;;11.60;99.90;;;;;;5024622;28;20480;-63
2023/04/13 11:21:54;;;;;;;2.37;2.17;;;11.50;99.90;;;;;;5025991;28;20479;-63
2023/04/13 11:24:27;;;;;;;2.10;1.90;;;11.40;99.90;;;;;;5023456;28;20989;-63
2023/04/13 11:26:56;;;;;;;2.57;2.37;;;11.50;99.90;;;;;;5023000;28;20475;-63
2023/04/13 11:29:24;;;;;;;2.20;2.10;;;11.70;99.90;;;;;;5024325;28;20498;-63
2023/04/13 11:31:52;;;;;;;3.47;2.07;;;12.00;99.90;;;;;;5025886;28;20849;-62
2023/04/13 11:34:27;;;;;;;2.37;2.17;;;12.20;99.90;;;;;;5023188;28;20983;-63
2023/04/13 11:37:04;;;;;;;2.80;2.50;;;12.40;99.90;;;;;;5023098;28;20482;-63
2023/04/13 11:39:35;;;;;;;5.23;2.67;;;12.50;99.90;;;;;;5026727;28;20483;-62
2023/04/13 11:42:06;;;;;;;2.40;2.03;;;12.60;99.90;;;;;;5021868;28;20984;-63
2023/04/13 11:44:36;;;;;;;2.30;2.10;;;12.60;99.90;;;;;;5023308;28;20479;-62
2023/04/13 11:47:04;;;;;;;2.30;2.10;;;12.70;99.90;;;;;;5024811;28;20567;-62
2023/04/13 11:49:33;;;;;;;2.30;2.10;;;12.60;99.90;;;;;;5025714;28;20497;-62
2023/04/13 11:52:03;;;;;;;2.80;2.30;;;12.50;99.90;;;;;;5023336;28;20471;-62
2023/04/13 11:54:31;;;;;;;2.40;2.20;;;12.50;99.90;;;;;;5026072;28;20475;-62
2023/04/13 11:57:00;;;;;;;2.70;2.33;;;12.50;99.90;;;;;;5026559;28;20673;-62
2023/04/13 11:59:28;;;;;;;2.10;2.00;;;12.50;99.90;;;;;;5018206;28;20582;-62
2023/04/13 12:01:56;;;;;;;2.20;2.00;;;12.70;99.90;;;;;;5027098;28;20471;-62
2023/04/13 12:04:37;;;;;;;2.10;2.00;;;12.90;99.90;;;;;;5027857;28;20532;-62
2023/04/13 12:07:12;;;;;;;2.33;2.10;;;13.10;99.90;;;;;;5021483;28;20469;-62
2023/04/13 12:09:42;;;;;;;2.00;1.90;;;13.10;99.90;;;;;;5022057;28;20482;-62
2023/04/13 12:12:25;;;;;;;2.27;2.17;;;13.00;99.90;;;;;;5012867;28;22126;-62
2023/04/13 12:14:57;;;;;;;2.83;2.57;;;13.00;99.90;;;;;;5011772;28;21136;-62
2023/04/13 12:17:53;;;;;;;2.70;2.50;;;13.20;99.90;;;;;;5017422;28;20502;-62
2023/04/13 12:20:35;;;;;;;2.77;2.57;;;13.40;99.90;;;;;;5020834;28;21071;-62
2023/04/13 12:23:05;;;;;;;2.37;2.27;;;13.50;99.90;;;;;;5021465;28;20478;-62
2023/04/13 12:25:56;;;;;;;2.80;2.43;;;13.60;99.90;;;;;;5019837;28;20525;-62
2023/04/13 12:28:35;;;;;;;2.50;2.30;;;13.60;99.90;;;;;;5022051;28;20483;-62
2023/04/13 12:31:04;;;;;;;2.70;2.13;;;13.90;99.90;;;;;;5017533;28;21028;-63
2023/04/13 12:33:32;;;;;;;3.43;2.80;;;14.10;99.90;;;;;;5021112;28;20507;-62
2023/04/13 12:36:00;;;;;;;2.50;2.30;;;14.40;99.90;;;;;;5026109;28;20497;-65
2023/04/13 12:38:29;;;;;;;2.47;2.30;;;14.60;99.90;;;;;;5025121;28;20498;-65
2023/04/13 12:41:01;;;;;;;2.57;2.47;;;14.60;99.90;;;;;;5015705;28;21115;-65
2023/04/13 12:43:29;;;;;;;1.93;1.83;;;14.60;99.90;;;;;;5025568;28;20485;-65
2023/04/13 12:45:57;;;;;;;2.43;2.23;;;14.60;99.90;;;;;;5021559;28;20470;-64
2023/04/13 12:48:25;;;;;;;2.60;2.47;;;14.70;99.90;;;;;;5025621;28;20487;-63
2023/04/13 12:50:54;;;;;;;2.80;2.60;;;14.90;99.90;;;;;;5022707;28;21099;-64
2023/04/13 12:53:22;;;;;;;2.87;2.53;;;15.00;99.90;;;;;;5018292;28;20478;-63
2023/04/13 12:55:51;;;;;;;3.50;2.50;;;15.10;99.90;;;;;;5023708;28;20502;-65
2023/04/13 12:58:19;;;;;;;2.40;2.30;;;15.20;99.90;;;;;;5023432;28;20491;-66
2023/04/13 13:00:47;;;;;;;2.63;2.43;;;15.40;99.90;;;;;;5023274;28;20493;-66
2023/04/13 13:03:15;;;;;;;2.90;2.70;;;15.60;99.90;;;;;;5024664;28;20706;-64